Time;durP1;ratioP1;P1;durP2;ratioP2;P2;SDS_P1;SDS_P2;PMS_P1;PMS_P2;Temp;Humidity;BMP_temperature;BMP_pressure;BME280_temperature;BME280_humidity;BME280_pressure;Samples;Min_cycle;Max_cycle;Signal;HPM_P1;HPM_P2
2024/03/05 00:00:19;;;;;;;57.92;25.38;;;6.90;99.90;;;;;;5088388;28;20074;-75
2024/03/05 00:02:49;;;;;;;;;;;6.80;99.90;;;;;;5084555;28;20097;-74
2024/03/05 00:05:18;;;;;;;57.60;23.70;;;6.80;99.90;;;;;;5091984;28;20318;-75
2024/03/05 00:07:50;;;;;;;60.85;27.00;;;6.80;99.90;;;;;;5090142;28;20036;-75
2024/03/05 00:10:19;;;;;;;56.95;25.65;;;6.70;99.90;;;;;;5065586;28;20050;-75
2024/03/05 00:12:49;;;;;;;56.75;24.92;;;6.70;99.90;;;;;;5086396;28;20116;-75
2024/03/05 00:15:19;;;;;;;68.18;27.63;;;6.70;99.90;;;;;;5074713;28;20451;-75
2024/03/05 00:17:51;;;;;;;62.58;27.98;;;6.70;99.90;;;;;;5089842;28;20120;-75
2024/03/05 00:20:19;;;;;;;58.30;26.33;;;6.70;99.90;;;;;;5113559;27;20658;-75
2024/03/05 00:22:50;;;;;;;56.03;25.92;;;6.70;99.90;;;;;;5089453;28;20142;-76
2024/03/05 00:25:20;;;;;;;58.95;26.65;;;6.70;99.90;;;;;;5090618;28;20032;-75
2024/03/05 00:27:50;;;;;;;66.20;30.30;;;6.60;99.90;;;;;;5092141;28;20524;-75
2024/03/05 00:30:22;;;;;;;76.00;29.20;;;6.60;99.90;;;;;;5089424;28;20044;-75
2024/03/05 00:32:51;;;;;;;68.82;28.83;;;6.60;99.90;;;;;;5093825;28;20070;-75
2024/03/05 00:35:20;;;;;;;64.45;26.17;;;6.50;99.90;;;;;;5097732;28;20040;-75
2024/03/05 00:37:50;;;;;;;59.25;27.02;;;6.60;99.90;;;;;;5093799;28;20068;-75
2024/03/05 00:40:19;;;;;;;59.30;27.10;;;6.50;99.90;;;;;;5095370;28;20059;-75
2024/03/05 00:42:50;;;;;;;62.28;26.67;;;6.50;99.90;;;;;;5093433;28;20463;-75
2024/03/05 00:45:21;;;;;;;55.97;25.17;;;6.50;99.90;;;;;;5099450;28;20037;-75
2024/03/05 00:47:51;;;;;;;59.55;25.40;;;6.50;99.90;;;;;;5096659;28;20140;-76
2024/03/05 00:50:20;;;;;;;65.88;27.20;;;6.50;99.90;;;;;;5105066;28;20427;-76
2024/03/05 00:52:51;;;;;;;59.15;28.23;;;6.50;99.90;;;;;;5096201;28;20518;-75
2024/03/05 00:55:19;;;;;;;59.33;27.83;;;6.50;99.90;;;;;;5096162;28;20044;-75
2024/03/05 00:57:51;;;;;;;61.67;27.05;;;6.40;99.90;;;;;;5107419;28;20467;-74
2024/03/05 01:00:20;;;;;;;60.67;25.85;;;6.40;99.90;;;;;;5091462;28;20099;-74
2024/03/05 01:02:50;;;;;;;59.08;26.17;;;6.40;99.90;;;;;;5105932;27;20086;-75
2024/03/05 01:05:20;;;;;;;54.05;24.10;;;6.40;99.90;;;;;;5089760;28;20045;-75
2024/03/05 01:07:48;;;;;;;56.45;25.13;;;6.40;99.90;;;;;;5106070;28;20053;-75
2024/03/05 01:10:17;;;;;;;56.72;25.88;;;6.40;99.90;;;;;;5104912;28;20114;-75
2024/03/05 01:12:46;;;;;;;53.40;24.52;;;6.40;99.90;;;;;;5094686;28;20523;-75
2024/03/05 01:15:16;;;;;;;53.50;23.35;;;6.40;99.90;;;;;;5081078;28;20586;-75
2024/03/05 01:17:45;;;;;;;49.50;21.58;;;6.40;99.90;;;;;;5097354;28;20056;-75
2024/03/05 01:20:16;;;;;;;51.95;22.40;;;6.30;99.90;;;;;;5095640;28;20446;-75
2024/03/05 01:22:47;;;;;;;49.42;23.48;;;6.40;99.90;;;;;;5109205;28;20126;-75
2024/03/05 01:25:17;;;;;;;53.42;22.23;;;6.30;99.90;;;;;;5105109;28;20096;-75
2024/03/05 01:27:46;;;;;;;44.70;20.77;;;6.30;99.90;;;;;;5115830;28;20043;-75
2024/03/05 01:30:16;;;;;;;48.80;21.95;;;6.30;99.90;;;;;;5100687;28;20102;-75
2024/03/05 01:32:48;;;;;;;47.10;22.27;;;6.30;99.90;;;;;;5115218;28;20072;-76
2024/03/05 01:35:21;;;;;;;47.55;22.98;;;6.30;99.90;;;;;;5090620;28;20044;-75
2024/03/05 01:37:51;;;;;;;;;;;6.30;99.90;;;;;;5047592;28;20056;-75
2024/03/05 01:40:20;;;;;;;48.70;20.77;;;6.30;99.90;;;;;;5097142;28;19942;-75
2024/03/05 01:42:51;;;;;;;49.22;21.48;;;6.20;99.90;;;;;;5100162;28;20055;-75
2024/03/05 01:45:21;;;;;;;53.55;22.13;;;6.20;99.90;;;;;;5089940;28;20048;-75
2024/03/05 01:47:52;;;;;;;48.80;20.65;;;6.20;99.90;;;;;;5095796;28;20052;-75
2024/03/05 01:50:24;;;;;;;49.53;21.08;;;6.20;99.90;;;;;;5078936;28;20048;-75
2024/03/05 01:52:55;;;;;;;46.20;19.98;;;6.20;99.90;;;;;;5097197;28;20098;-75
2024/03/05 01:55:25;;;;;;;48.35;20.33;;;6.20;99.90;;;;;;5075254;28;20047;-75
2024/03/05 01:57:57;;;;;;;45.75;20.45;;;6.20;99.90;;;;;;5093664;28;20570;-75
2024/03/05 02:00:27;;;;;;;47.10;21.83;;;6.20;99.90;;;;;;5108968;28;20039;-75
2024/03/05 02:02:56;;;;;;;54.13;21.95;;;6.20;99.90;;;;;;5098304;28;20048;-75
2024/03/05 02:05:27;;;;;;;50.08;21.58;;;6.10;99.90;;;;;;5092793;28;20133;-76
2024/03/05 02:07:56;;;;;;;49.00;21.17;;;6.10;99.90;;;;;;5103961;28;20052;-75
2024/03/05 02:10:24;;;;;;;45.20;20.50;;;6.10;99.90;;;;;;5091143;28;20051;-75
2024/03/05 02:12:53;;;;;;;43.30;18.88;;;6.10;99.90;;;;;;5094493;28;20040;-76
2024/03/05 02:15:22;;;;;;;50.33;21.45;;;6.10;99.90;;;;;;5104203;28;20120;-76
2024/03/05 02:17:51;;;;;;;41.95;20.58;;;6.10;99.90;;;;;;5093063;28;20082;-75
2024/03/05 02:20:21;;;;;;;40.75;20.35;;;6.00;99.90;;;;;;5094913;28;20168;-75
2024/03/05 02:22:52;;;;;;;42.30;19.05;;;6.00;99.90;;;;;;5093537;28;20048;-75
2024/03/05 02:25:21;;;;;;;48.00;21.10;;;6.00;99.90;;;;;;5089774;28;20044;-75
2024/03/05 02:27:50;;;;;;;42.70;19.10;;;6.00;99.90;;;;;;5088642;28;20105;-75
2024/03/05 02:30:20;;;;;;;44.63;20.02;;;6.00;99.90;;;;;;5088078;28;20052;-75
2024/03/05 02:32:49;;;;;;;38.20;18.50;;;6.00;99.90;;;;;;5097270;28;20044;-75
2024/03/05 02:35:18;;;;;;;40.92;18.83;;;6.00;99.90;;;;;;5089706;28;20115;-75
2024/03/05 02:37:48;;;;;;;41.47;18.75;;;6.00;99.90;;;;;;5081354;28;20048;-75
2024/03/05 02:40:20;;;;;;;41.78;19.17;;;6.00;99.90;;;;;;5062711;28;20445;-75
2024/03/05 02:42:51;;;;;;;39.08;17.98;;;6.00;99.90;;;;;;5079344;28;20040;-75
2024/03/05 02:45:21;;;;;;;42.20;19.57;;;5.90;99.90;;;;;;5054937;28;20048;-75
2024/03/05 02:47:50;;;;;;;40.88;18.13;;;6.00;99.90;;;;;;5072712;28;20048;-75
2024/03/05 02:50:19;;;;;;;38.38;18.08;;;5.90;99.90;;;;;;5070972;28;20048;-75
2024/03/05 02:52:47;;;;;;;41.17;18.85;;;5.90;99.90;;;;;;5070645;28;20415;-75
2024/03/05 02:55:17;;;;;;;41.28;19.15;;;5.90;99.90;;;;;;5071907;28;20044;-74
2024/03/05 02:57:50;;;;;;;39.63;17.55;;;5.90;99.90;;;;;;5058540;28;20523;-75
2024/03/05 03:00:19;;;;;;;42.85;18.42;;;5.90;99.90;;;;;;5069025;28;20132;-75
2024/03/05 03:02:50;;;;;;;41.53;19.23;;;5.90;99.90;;;;;;5055931;28;20102;-75
2024/03/05 03:05:21;;;;;;;37.78;17.80;;;5.90;99.90;;;;;;5066981;28;20064;-74
2024/03/05 03:07:51;;;;;;;39.03;16.95;;;5.90;99.90;;;;;;5072751;28;20048;-76
2024/03/05 03:10:20;;;;;;;41.70;16.65;;;5.80;99.90;;;;;;5052181;28;20063;-76
2024/03/05 03:12:53;;;;;;;40.15;17.70;;;5.90;99.90;;;;;;5073354;28;20052;-76
2024/03/05 03:15:23;;;;;;;40.70;18.53;;;5.90;99.90;;;;;;5066984;28;20052;-75
2024/03/05 03:17:52;;;;;;;41.67;17.25;;;5.90;99.90;;;;;;5052820;28;20044;-75
2024/03/05 03:20:24;;;;;;;40.70;17.75;;;5.80;99.90;;;;;;5055928;28;20041;-75
2024/03/05 03:22:55;;;;;;;39.30;16.40;;;5.90;99.90;;;;;;5064592;28;20090;-75
2024/03/05 03:25:24;;;;;;;41.30;19.13;;;5.80;99.90;;;;;;5112079;27;20388;-75
2024/03/05 03:27:58;;;;;;;37.83;17.75;;;5.80;99.90;;;;;;5095276;28;20132;-75
2024/03/05 03:30:29;;;;;;;36.25;16.63;;;5.90;99.90;;;;;;5108144;28;20049;-75
2024/03/05 03:32:58;;;;;;;34.33;17.13;;;5.80;99.90;;;;;;5062918;28;20466;-75
2024/03/05 03:35:30;;;;;;;34.50;15.55;;;5.80;99.90;;;;;;5085820;28;20079;-75
2024/03/05 03:38:03;;;;;;;34.38;16.58;;;5.80;99.90;;;;;;5095895;28;20069;-75
2024/03/05 03:40:34;;;;;;;34.80;15.68;;;5.80;99.90;;;;;;5091231;28;20410;-75
2024/03/05 03:43:05;;;;;;;38.97;16.35;;;5.90;99.90;;;;;;5095410;28;20105;-75
2024/03/05 03:45:35;;;;;;;42.17;17.08;;;5.90;99.90;;;;;;5109072;28;20076;-75
2024/03/05 03:48:06;;;;;;;45.33;19.58;;;5.90;99.90;;;;;;5103470;28;20040;-75
2024/03/05 03:50:40;;;;;;;43.72;20.25;;;5.90;99.90;;;;;;5091002;28;20123;-74
2024/03/05 03:53:08;;;;;;;52.05;22.05;;;5.90;99.90;;;;;;5088627;28;20121;-75
2024/03/05 03:55:37;;;;;;;55.70;23.13;;;5.90;99.90;;;;;;5083225;28;20105;-75
2024/03/05 03:58:10;;;;;;;55.42;22.50;;;5.90;99.90;;;;;;5094839;28;20556;-75
2024/03/05 04:00:38;;;;;;;;;;;5.90;99.90;;;;;;5093831;28;20046;-75
2024/03/05 04:03:09;;;;;;;46.55;18.55;;;5.90;99.90;;;;;;5111084;28;19920;-75
2024/03/05 04:05:39;;;;;;;42.35;18.27;;;5.90;99.90;;;;;;5078896;28;20048;-75
2024/03/05 04:08:08;;;;;;;38.78;17.25;;;5.90;99.90;;;;;;5090471;28;20055;-75
2024/03/05 04:10:38;;;;;;;40.85;17.45;;;5.90;99.90;;;;;;5081319;28;20055;-75
2024/03/05 04:13:14;;;;;;;39.38;16.83;;;5.90;99.90;;;;;;5089620;28;20138;-75
2024/03/05 04:15:43;;;;;;;40.92;16.25;;;5.90;99.90;;;;;;5094144;28;20040;-75
2024/03/05 04:18:12;;;;;;;39.03;16.10;;;6.00;99.90;;;;;;5082081;28;20093;-76
2024/03/05 04:20:47;;;;;;;35.75;17.65;;;5.90;99.90;;;;;;5090819;28;20109;-75
2024/03/05 04:23:18;;;;;;;35.88;16.17;;;5.90;99.90;;;;;;5093484;28;20044;-75
2024/03/05 04:25:47;;;;;;;33.47;16.33;;;5.90;99.90;;;;;;5095253;28;20045;-75
2024/03/05 04:28:17;;;;;;;34.80;15.73;;;5.90;99.90;;;;;;5094888;28;20048;-75
2024/03/05 04:30:48;;;;;;;33.00;14.70;;;5.90;99.90;;;;;;5082387;28;20037;-75
2024/03/05 04:33:21;;;;;;;38.50;16.33;;;5.90;99.90;;;;;;5092087;28;20045;-75
2024/03/05 04:35:50;;;;;;;33.20;16.35;;;5.90;99.90;;;;;;5076867;28;20098;-75
2024/03/05 04:38:19;;;;;;;33.10;15.95;;;6.00;99.90;;;;;;5093680;28;20052;-74
2024/03/05 04:40:50;;;;;;;31.63;15.07;;;5.90;99.90;;;;;;5081199;28;20063;-75
2024/03/05 04:43:23;;;;;;;30.80;15.57;;;5.90;99.90;;;;;;5093822;28;20036;-74
2024/03/05 04:45:51;;;;;;;;;;;6.00;99.90;;;;;;5092924;28;20571;-74
2024/03/05 04:48:20;;;;;;;34.53;15.55;;;6.00;99.90;;;;;;5094486;28;19920;-74
2024/03/05 04:50:49;;;;;;;44.33;16.92;;;6.00;99.90;;;;;;5089073;28;20461;-74
2024/03/05 04:53:20;;;;;;;37.55;16.48;;;6.00;99.90;;;;;;5087930;28;20499;-74
2024/03/05 04:55:49;;;;;;;37.13;17.75;;;6.00;99.90;;;;;;5090956;28;20039;-74
2024/03/05 04:58:21;;;;;;;40.10;18.88;;;6.00;99.90;;;;;;5092107;28;20058;-75
2024/03/05 05:00:50;;;;;;;40.25;19.15;;;6.00;99.90;;;;;;5030839;28;20066;-75
2024/03/05 05:03:20;;;;;;;37.35;19.52;;;5.90;99.90;;;;;;5080467;28;20117;-74
2024/03/05 05:05:53;;;;;;;39.60;18.15;;;5.80;99.90;;;;;;5090194;28;20398;-74
2024/03/05 05:08:25;;;;;;;43.65;19.05;;;5.90;99.90;;;;;;5092573;28;20097;-74
2024/03/05 05:10:55;;;;;;;46.97;19.25;;;5.90;99.90;;;;;;5089720;28;20079;-74
2024/03/05 05:13:25;;;;;;;38.97;18.05;;;5.90;99.90;;;;;;5088982;28;20036;-74
2024/03/05 05:15:58;;;;;;;41.45;18.67;;;6.00;99.90;;;;;;5092049;28;20048;-74
2024/03/05 05:18:27;;;;;;;39.03;18.02;;;6.00;99.90;;;;;;5088280;28;20102;-74
2024/03/05 05:20:58;;;;;;;35.80;16.58;;;6.00;99.90;;;;;;5095332;28;20074;-74
2024/03/05 05:23:27;;;;;;;43.55;19.48;;;6.10;99.90;;;;;;5092903;28;20571;-74
2024/03/05 05:26:01;;;;;;;46.90;21.00;;;6.10;99.90;;;;;;5084954;28;20507;-74
2024/03/05 05:28:32;;;;;;;42.25;18.92;;;6.20;99.90;;;;;;5095711;28;20062;-74
2024/03/05 05:31:03;;;;;;;46.30;18.98;;;6.10;99.90;;;;;;5095383;28;20054;-75
2024/03/05 05:33:33;;;;;;;44.65;19.17;;;6.10;99.90;;;;;;5090493;28;20140;-74
2024/03/05 05:36:01;;;;;;;48.45;20.50;;;6.20;99.90;;;;;;5092038;28;20127;-74
2024/03/05 05:38:31;;;;;;;37.80;19.48;;;6.20;99.90;;;;;;5091798;28;20078;-74
2024/03/05 05:41:01;;;;;;;49.10;19.27;;;6.20;99.90;;;;;;5092632;28;20499;-74
2024/03/05 05:43:31;;;;;;;44.65;20.75;;;5.90;99.90;;;;;;5094825;28;20040;-74
2024/03/05 05:46:04;;;;;;;46.70;21.13;;;6.20;99.90;;;;;;5106106;28;20521;-74
2024/03/05 05:48:35;;;;;;;47.55;20.00;;;6.30;99.90;;;;;;5095642;28;20052;-74
2024/03/05 05:51:10;;;;;;;50.53;20.20;;;6.30;99.90;;;;;;5095429;28;20093;-74
2024/03/05 05:53:39;;;;;;;44.83;20.20;;;6.30;99.90;;;;;;5087259;28;20044;-75
2024/03/05 05:56:09;;;;;;;47.65;21.63;;;6.40;99.90;;;;;;5101679;28;20050;-75
2024/03/05 05:58:39;;;;;;;53.03;21.17;;;6.40;99.90;;;;;;5092976;28;20091;-75
2024/03/05 06:01:09;;;;;;;60.70;22.52;;;6.40;99.90;;;;;;5087175;28;20048;-75
2024/03/05 06:03:40;;;;;;;58.95;27.33;;;6.50;99.90;;;;;;5107378;28;20048;-76
2024/03/05 06:06:14;;;;;;;67.18;28.85;;;6.40;99.90;;;;;;5094965;28;20036;-75
2024/03/05 06:08:47;;;;;;;64.93;29.38;;;6.40;99.90;;;;;;5076824;28;20045;-75
2024/03/05 06:11:18;;;;;;;55.60;25.55;;;6.50;99.90;;;;;;5086416;28;20064;-76
2024/03/05 06:13:48;;;;;;;54.05;25.35;;;6.50;99.90;;;;;;5075973;28;20505;-76
2024/03/05 06:16:19;;;;;;;47.95;23.25;;;6.50;99.90;;;;;;5076766;28;20446;-76
2024/03/05 06:18:51;;;;;;;51.67;23.90;;;6.50;99.90;;;;;;5106282;28;20052;-76
2024/03/05 06:21:22;;;;;;;48.15;22.83;;;6.50;99.90;;;;;;5095581;28;20533;-76
2024/03/05 06:23:52;;;;;;;47.83;20.95;;;6.50;99.90;;;;;;5061405;28;20044;-76
2024/03/05 06:26:22;;;;;;;43.95;20.23;;;6.60;99.90;;;;;;5076920;28;20118;-76
2024/03/05 06:28:53;;;;;;;46.75;21.25;;;6.60;99.90;;;;;;5096215;28;20042;-75
2024/03/05 06:31:21;;;;;;;46.80;20.60;;;6.70;99.90;;;;;;5094423;28;20067;-76
2024/03/05 06:33:52;;;;;;;47.08;21.25;;;6.80;99.90;;;;;;5094971;28;20051;-76
2024/03/05 06:36:22;;;;;;;51.85;21.55;;;6.80;99.90;;;;;;5078083;28;20071;-76
2024/03/05 06:38:53;;;;;;;46.35;19.35;;;6.80;99.90;;;;;;5097835;28;20105;-75
2024/03/05 06:41:25;;;;;;;43.45;19.33;;;6.90;99.90;;;;;;5093749;28;20048;-76
2024/03/05 06:43:59;;;;;;;50.03;19.87;;;6.90;99.90;;;;;;5093963;28;20044;-76
2024/03/05 06:46:29;;;;;;;42.83;18.70;;;7.00;99.90;;;;;;5097968;28;20794;-76
2024/03/05 06:49:00;;;;;;;37.17;17.63;;;7.10;99.90;;;;;;5099104;28;20044;-76
2024/03/05 06:51:41;;;;;;;40.78;18.98;;;7.20;99.90;;;;;;5072943;28;20190;-75
2024/03/05 06:56:58;;;;;;;42.55;21.45;;;7.30;99.90;;;;;;5073201;28;20094;-75
2024/03/05 06:59:31;;;;;;;40.67;19.55;;;7.30;99.90;;;;;;5072736;28;20124;-76
2024/03/05 07:02:01;;;;;;;48.03;20.75;;;7.40;99.90;;;;;;5060847;28;20051;-75
2024/03/05 07:04:30;;;;;;;47.08;19.88;;;7.50;99.90;;;;;;5069504;28;20656;-75
2024/03/05 07:07:00;;;;;;;42.88;18.60;;;7.50;99.90;;;;;;5068378;28;20084;-75
2024/03/05 07:09:30;;;;;;;47.33;20.92;;;7.60;99.90;;;;;;5052460;28;20531;-75
2024/03/05 07:12:01;;;;;;;43.75;20.63;;;7.60;99.90;;;;;;5072062;28;20048;-76
2024/03/05 07:14:32;;;;;;;42.15;20.63;;;7.70;99.90;;;;;;5072679;28;20086;-76
2024/03/05 07:17:01;;;;;;;45.40;22.38;;;7.70;99.90;;;;;;5071904;28;20056;-76
2024/03/05 07:19:31;;;;;;;48.17;22.38;;;7.80;99.90;;;;;;5067354;28;20056;-76
2024/03/05 07:22:02;;;;;;;44.67;22.27;;;7.90;99.90;;;;;;5074223;28;20052;-76
2024/03/05 07:24:31;;;;;;;50.80;23.08;;;8.00;99.90;;;;;;5091793;28;20043;-76
2024/03/05 07:27:00;;;;;;;52.80;24.02;;;8.00;99.90;;;;;;5090172;28;20445;-77
2024/03/05 07:29:38;;;;;;;48.17;23.70;;;8.20;99.90;;;;;;5086997;28;20131;-77
2024/03/05 07:32:07;;;;;;;54.15;24.77;;;8.30;99.90;;;;;;5092028;28;20047;-77
2024/03/05 07:34:36;;;;;;;57.47;25.80;;;8.40;99.90;;;;;;5053074;28;20055;-76
2024/03/05 07:37:06;;;;;;;55.30;26.05;;;8.60;99.90;;;;;;5099426;28;20392;-77
2024/03/05 07:39:34;;;;;;;59.03;25.77;;;8.90;99.90;;;;;;5099959;28;20035;-78
2024/03/05 07:42:04;;;;;;;50.97;25.02;;;9.10;99.90;;;;;;5083029;28;20044;-77
2024/03/05 07:44:34;;;;;;;55.17;25.48;;;9.10;99.90;;;;;;5087933;28;20044;-76
2024/03/05 07:47:04;;;;;;;47.13;23.45;;;9.20;99.90;;;;;;5100745;27;23712;-77
2024/03/05 07:49:33;;;;;;;48.88;22.55;;;9.20;99.90;;;;;;5088062;28;20067;-77
2024/03/05 07:52:02;;;;;;;47.30;24.63;;;9.30;99.90;;;;;;5076857;28;20040;-76
2024/03/05 07:54:30;;;;;;;50.88;23.02;;;9.40;99.90;;;;;;5085141;28;20044;-76
2024/03/05 07:56:59;;;;;;;45.65;23.08;;;9.60;99.90;;;;;;5082892;28;20059;-77
2024/03/05 07:59:29;;;;;;;44.78;23.80;;;9.70;99.90;;;;;;5082988;28;20051;-77
2024/03/05 08:01:58;;;;;;;49.85;24.15;;;9.70;99.90;;;;;;5084036;28;20049;-76
2024/03/05 08:04:28;;;;;;;58.70;25.83;;;9.60;99.90;;;;;;5102726;27;20392;-77
2024/03/05 08:06:56;;;;;;;45.72;22.52;;;9.70;99.90;;;;;;5101769;28;20040;-77
2024/03/05 08:09:25;;;;;;;45.03;22.92;;;9.70;99.90;;;;;;5083391;28;20043;-75
2024/03/05 08:11:54;;;;;;;45.70;22.73;;;9.80;99.90;;;;;;5087396;28;20094;-76
2024/03/05 08:14:23;;;;;;;50.13;22.17;;;9.80;99.90;;;;;;5083027;28;20433;-76
2024/03/05 08:16:52;;;;;;;46.45;23.83;;;9.80;99.90;;;;;;5087695;28;20047;-76
2024/03/05 08:19:20;;;;;;;48.20;22.92;;;9.90;99.90;;;;;;5083397;28;20052;-76
2024/03/05 08:21:51;;;;;;;46.97;22.88;;;9.90;99.90;;;;;;5087606;28;20043;-76
2024/03/05 08:24:19;;;;;;;44.22;22.77;;;10.00;99.90;;;;;;5085751;28;20094;-77
2024/03/05 08:26:49;;;;;;;43.88;22.45;;;10.10;99.90;;;;;;5086707;28;20090;-76
2024/03/05 08:29:18;;;;;;;43.45;22.13;;;10.10;99.90;;;;;;5086663;28;20044;-76
2024/03/05 08:31:46;;;;;;;46.88;22.33;;;10.20;99.90;;;;;;5080545;28;20109;-77
2024/03/05 08:34:14;;;;;;;44.67;22.27;;;10.30;99.90;;;;;;5091775;28;20040;-76
2024/03/05 08:36:45;;;;;;;43.03;22.38;;;10.40;99.90;;;;;;5088779;28;20063;-76
2024/03/05 08:39:17;;;;;;;44.08;21.50;;;10.50;99.90;;;;;;5081915;28;20063;-77
2024/03/05 08:41:47;;;;;;;42.63;21.67;;;10.60;99.90;;;;;;5082074;28;20040;-76
2024/03/05 08:44:17;;;;;;;43.15;22.50;;;10.70;99.90;;;;;;5081550;28;20037;-77
2024/03/05 08:46:46;;;;;;;45.58;21.27;;;10.80;99.90;;;;;;5077086;28;20071;-77
2024/03/05 08:49:14;;;;;;;41.25;21.33;;;10.80;99.90;;;;;;5100420;28;20049;-80
2024/03/05 08:51:45;;;;;;;42.05;19.75;;;10.80;99.90;;;;;;5098986;28;20139;-78
2024/03/05 08:54:15;;;;;;;51.88;23.27;;;10.90;99.90;;;;;;5086824;28;20028;-77
2024/03/05 08:56:45;;;;;;;41.85;19.65;;;10.90;99.90;;;;;;5085008;28;20051;-76
2024/03/05 08:59:14;;;;;;;43.03;20.75;;;10.90;99.90;;;;;;5084004;28;20131;-77
2024/03/05 09:01:42;;;;;;;46.25;21.25;;;10.90;99.90;;;;;;5092364;28;20101;-77
2024/03/05 09:04:11;;;;;;;41.17;19.35;;;10.90;99.90;;;;;;5084978;28;20083;-76
2024/03/05 09:06:40;;;;;;;42.63;21.75;;;10.80;99.90;;;;;;5082103;28;20560;-77
2024/03/05 09:09:11;;;;;;;39.17;21.52;;;10.90;99.90;;;;;;5087060;28;20115;-76
2024/03/05 09:11:41;;;;;;;45.80;21.48;;;11.10;99.90;;;;;;5100101;28;20049;-79
2024/03/05 09:14:10;;;;;;;39.22;20.90;;;11.10;99.90;;;;;;5085539;28;20547;-79
2024/03/05 09:16:39;;;;;;;39.90;21.77;;;11.30;99.90;;;;;;5081704;28;20044;-75
2024/03/05 09:19:10;;;;;;;39.92;19.92;;;11.60;99.90;;;;;;5086980;28;20059;-77
2024/03/05 09:21:39;;;;;;;41.05;20.88;;;11.70;99.90;;;;;;5101314;28;20120;-77
2024/03/05 09:24:08;;;;;;;42.17;20.10;;;11.90;99.90;;;;;;5087400;28;20052;-76
2024/03/05 09:26:36;;;;;;;38.05;19.60;;;12.10;99.90;;;;;;5084221;28;20072;-79
2024/03/05 09:29:08;;;;;;;38.38;19.02;;;12.00;99.90;;;;;;5086720;28;20089;-79
2024/03/05 09:31:38;;;;;;;37.15;18.33;;;12.20;99.90;;;;;;5082502;28;20536;-80
2024/03/05 09:34:10;;;;;;;37.05;19.85;;;12.30;99.90;;;;;;5086726;28;20407;-76
2024/03/05 09:36:39;;;;;;;35.15;19.02;;;12.10;99.90;;;;;;5098007;27;20052;-77
2024/03/05 09:39:09;;;;;;;38.60;20.20;;;12.00;99.90;;;;;;5086187;28;20040;-76
2024/03/05 09:41:42;;;;;;;37.35;18.50;;;12.10;99.90;;;;;;5079064;28;20059;-79
2024/03/05 09:44:13;;;;;;;37.10;18.17;;;12.40;99.90;;;;;;5081625;28;20098;-76
2024/03/05 09:46:45;;;;;;;40.88;19.55;;;12.60;99.90;;;;;;5084279;28;20134;-76
2024/03/05 09:49:18;;;;;;;39.88;18.70;;;12.70;99.90;;;;;;5089566;28;20116;-79
2024/03/05 09:51:52;;;;;;;35.05;18.48;;;12.80;99.90;;;;;;5099619;28;20441;-75
2024/03/05 09:54:22;;;;;;;31.13;17.88;;;12.90;99.90;;;;;;5097489;28;20060;-76
2024/03/05 09:56:53;;;;;;;33.80;17.23;;;12.90;99.90;;;;;;5085103;28;20560;-79
2024/03/05 09:59:24;;;;;;;30.88;16.73;;;12.90;99.90;;;;;;5100804;28;20051;-75
2024/03/05 10:01:53;;;;;;;33.70;17.52;;;13.00;99.90;;;;;;5086994;28;20572;-76
2024/03/05 10:04:26;;;;;;;35.47;16.35;;;13.00;99.90;;;;;;5089065;28;20076;-75
2024/03/05 10:06:55;;;;;;;29.15;15.75;;;13.20;99.90;;;;;;5097224;28;20494;-75
2024/03/05 10:09:25;;;;;;;32.40;16.65;;;13.30;99.90;;;;;;5088708;28;20048;-76
2024/03/05 10:11:54;;;;;;;32.25;16.65;;;13.50;99.90;;;;;;5083783;28;20055;-75
2024/03/05 10:14:25;;;;;;;35.83;16.55;;;13.60;99.90;;;;;;5086075;28;20191;-75
2024/03/05 10:17:01;;;;;;;32.03;17.80;;;13.60;99.90;;;;;;5103540;28;20506;-75
2024/03/05 10:19:42;;;;;;;30.50;17.02;;;13.70;99.90;;;;;;5084535;28;20048;-74
2024/03/05 10:22:13;;;;;;;33.13;17.08;;;13.70;99.90;;;;;;5086160;28;20134;-75
2024/03/05 10:24:42;;;;;;;33.88;17.38;;;13.90;99.90;;;;;;5083550;28;20055;-75
2024/03/05 10:27:14;;;;;;;32.03;16.10;;;14.10;99.90;;;;;;5085501;28;20086;-75
2024/03/05 10:29:44;;;;;;;25.77;13.73;;;14.10;99.90;;;;;;5101901;27;20055;-75
2024/03/05 10:32:17;;;;;;;29.63;14.60;;;14.30;99.90;;;;;;5086966;28;20537;-75
2024/03/05 10:34:47;;;;;;;24.55;13.95;;;14.30;99.90;;;;;;5087152;28;20047;-75
2024/03/05 10:37:17;;;;;;;28.02;13.65;;;14.30;99.90;;;;;;5083733;28;20066;-74
2024/03/05 10:39:47;;;;;;;26.75;14.02;;;14.40;99.90;;;;;;5082512;28;20072;-75
2024/03/05 10:42:16;;;;;;;30.88;15.75;;;14.60;99.90;;;;;;5076670;28;20101;-76
2024/03/05 10:44:48;;;;;;;24.42;13.15;;;14.60;99.90;;;;;;5103055;28;20036;-76
2024/03/05 10:47:18;;;;;;;30.17;14.82;;;14.40;99.90;;;;;;5081667;28;20138;-75
2024/03/05 10:49:47;;;;;;;29.10;15.90;;;14.50;99.90;;;;;;5045817;28;20055;-76
2024/03/05 10:52:17;;;;;;;25.63;14.85;;;14.70;99.90;;;;;;5085131;28;20499;-75
2024/03/05 10:54:48;;;;;;;30.73;16.23;;;14.50;99.90;;;;;;5087043;28;20040;-77
2024/03/05 10:57:18;;;;;;;24.67;13.27;;;14.70;99.90;;;;;;5084301;28;20051;-76
2024/03/05 10:59:53;;;;;;;25.85;13.85;;;14.70;99.90;;;;;;5078995;28;20180;-76
2024/03/05 11:02:27;;;;;;;24.33;12.60;;;14.80;99.90;;;;;;5080801;28;20048;-78
2024/03/05 11:04:58;;;;;;;24.58;12.32;;;14.90;99.90;;;;;;5079844;28;20543;-75
2024/03/05 11:07:27;;;;;;;24.58;11.13;;;14.80;99.90;;;;;;5098423;28;20045;-75
2024/03/05 11:09:59;;;;;;;21.33;11.82;;;14.90;99.90;;;;;;5088266;28;20592;-74
2024/03/05 11:12:29;;;;;;;23.88;11.55;;;15.10;99.90;;;;;;5084644;28;20080;-75
2024/03/05 11:14:59;;;;;;;21.98;11.73;;;15.10;99.90;;;;;;5081888;28;20041;-76
2024/03/05 11:17:28;;;;;;;20.63;10.77;;;15.20;99.90;;;;;;5086421;28;20053;-77
2024/03/05 11:19:57;;;;;;;21.23;11.05;;;15.10;99.40;;;;;;5083956;28;20055;-77
2024/03/05 11:22:26;;;;;;;21.58;11.48;;;15.30;99.90;;;;;;5083293;28;20039;-77
2024/03/05 11:24:57;;;;;;;23.88;12.52;;;15.30;99.70;;;;;;5095264;28;20037;-76
2024/03/05 11:27:27;;;;;;;19.48;12.02;;;15.20;99.50;;;;;;5077812;28;20056;-76
2024/03/05 11:30:11;;;;;;;20.98;11.98;;;14.90;99.30;;;;;;5084771;28;20067;-74
2024/03/05 11:32:40;;;;;;;24.70;13.00;;;15.00;99.90;;;;;;5088875;28;20175;-75
2024/03/05 11:35:11;;;;;;;20.70;11.38;;;15.20;99.90;;;;;;5093628;28;20564;-77
2024/03/05 11:37:48;;;;;;;25.38;11.40;;;15.50;99.90;;;;;;5098058;27;20526;-74
2024/03/05 11:40:18;;;;;;;23.35;11.85;;;15.50;99.50;;;;;;5082184;28;20040;-76
2024/03/05 11:42:47;;;;;;;22.77;12.63;;;15.50;99.90;;;;;;5080832;28;20067;-77
2024/03/05 11:45:44;;;;;;;21.73;11.80;;;15.50;99.60;;;;;;5080460;28;20032;-75
2024/03/05 11:48:15;;;;;;;26.60;12.88;;;15.50;98.80;;;;;;5085255;28;20522;-74
2024/03/05 11:50:44;;;;;;;22.02;12.13;;;15.50;99.20;;;;;;5088259;28;20052;-77
2024/03/05 11:53:13;;;;;;;19.05;10.23;;;15.60;99.40;;;;;;5084395;28;20043;-74
2024/03/05 11:55:42;;;;;;;18.77;10.50;;;15.60;98.60;;;;;;5106045;27;20044;-74
2024/03/05 11:58:11;;;;;;;19.98;10.30;;;15.60;97.60;;;;;;5085078;28;20036;-76
2024/03/05 12:00:40;;;;;;;21.67;10.60;;;15.60;97.80;;;;;;5096516;28;20055;-78
2024/03/05 12:03:09;;;;;;;18.48;9.52;;;15.90;98.40;;;;;;5101576;28;20452;-76
2024/03/05 12:05:43;;;;;;;20.58;10.18;;;16.00;97.90;;;;;;5081651;28;20094;-77
2024/03/05 12:08:12;;;;;;;19.48;9.45;;;15.90;97.00;;;;;;5097887;28;20126;-76
2024/03/05 12:10:40;;;;;;;17.20;7.80;;;15.70;97.30;;;;;;5097310;28;20123;-78
2024/03/05 12:13:10;;;;;;;15.38;9.25;;;15.50;96.30;;;;;;5084825;28;20063;-76
2024/03/05 12:15:39;;;;;;;19.33;9.05;;;15.50;96.70;;;;;;5083320;28;20045;-77
2024/03/05 12:18:10;;;;;;;17.33;9.48;;;15.30;97.30;;;;;;5105567;27;20093;-75
2024/03/05 12:20:41;;;;;;;16.30;9.68;;;15.40;97.30;;;;;;5087011;28;20213;-75
2024/03/05 12:23:11;;;;;;;19.33;10.00;;;15.70;97.50;;;;;;5089508;28;20763;-73
2024/03/05 12:25:40;;;;;;;17.88;8.73;;;15.80;97.00;;;;;;5088646;28;20450;-73
2024/03/05 12:28:08;;;;;;;17.42;9.77;;;15.80;96.20;;;;;;5085738;28;20063;-75
2024/03/05 12:30:37;;;;;;;17.15;9.82;;;15.90;96.30;;;;;;5096941;28;20498;-73
2024/03/05 12:33:06;;;;;;;21.70;10.23;;;15.90;95.80;;;;;;5082349;28;20048;-74
2024/03/05 12:35:36;;;;;;;17.80;9.95;;;16.00;96.20;;;;;;5083421;28;20056;-73
2024/03/05 12:38:05;;;;;;;19.15;9.23;;;15.70;95.70;;;;;;5088188;28;20096;-74
2024/03/05 12:40:35;;;;;;;18.27;10.80;;;15.50;96.40;;;;;;5083858;28;20044;-73
2024/03/05 12:43:08;;;;;;;15.63;8.68;;;15.70;96.70;;;;;;5083403;28;20035;-72
2024/03/05 12:45:37;;;;;;;21.85;9.93;;;16.00;96.40;;;;;;5099986;28;20044;-74
2024/03/05 12:48:08;;;;;;;20.77;10.75;;;16.10;95.60;;;;;;5087314;28;20074;-73
2024/03/05 12:50:41;;;;;;;19.20;8.60;;;16.10;95.10;;;;;;5097876;28;20083;-74
2024/03/05 12:53:10;;;;;;;;;;;16.20;95.20;;;;;;5105446;28;20380;-74